Time;durP1;ratioP1;P1;durP2;ratioP2;P2;SDS_P1;SDS_P2;PMS_P1;PMS_P2;Temp;Humidity;BMP_temperature;BMP_pressure;BME280_temperature;BME280_humidity;BME280_pressure;Samples;Min_cycle;Max_cycle;Signal;HPM_P1;HPM_P2
2023/12/20 00:01:10;;;;;;;;;;;;;;;4.33;69.37;100063.84;4495730;31;34103;-73
2023/12/20 00:03:37;;;;;;;;;;;;;;;4.43;68.38;100063.72;4490135;31;33704;-74
2023/12/20 00:06:09;;;;;;;;;;;;;;;4.32;68.98;100057.78;4489238;31;33948;-74
2023/12/20 00:08:37;;;;;;;;;;;;;;;4.33;68.87;100051.03;4492315;31;34186;-73
2023/12/20 00:11:04;;;;;;;;;;;;;;;4.34;69.15;100055.34;4487518;31;34154;-73
2023/12/20 00:13:31;;;;;;;;;;;;;;;4.34;69.08;100047.66;4480930;31;33506;-73
2023/12/20 00:15:59;;;;;;;;;;;;;;;4.35;69.21;100052.03;4476262;32;34218;-73
2023/12/20 00:18:26;;;;;;;;;;;;;;;4.31;69.54;100045.78;4483961;31;34851;-74
2023/12/20 00:20:53;;;;;;;;;;;;;;;4.33;69.30;100053.59;4484505;31;34672;-72
2023/12/20 00:23:23;;;;;;;;;;;;;;;4.38;69.17;100033.37;4486526;31;32398;-73
2023/12/20 00:25:50;;;;;;;;;;;;;;;4.46;68.57;100030.63;4486366;31;34621;-74
2023/12/20 00:28:17;;;;;;;;;;;;;;;4.44;68.52;100029.63;4486102;31;34157;-73
2023/12/20 00:30:45;;;;;;;;;;;;;;;4.57;67.50;100022.78;4493208;31;34001;-73
2023/12/20 00:33:12;;;;;;;;;;;;;;;4.28;68.38;100026.69;4487802;31;33798;-73
2023/12/20 00:35:40;;;;;;;;;;;;;;;4.21;68.81;100021.88;4486909;31;34228;-73
2023/12/20 00:38:09;;;;;;;;;;;;;;;4.19;68.84;100019.25;4490573;31;36124;-73
2023/12/20 00:40:36;;;;;;;;;;;;;;;4.32;68.57;100011.62;4473348;31;33961;-73
2023/12/20 00:43:03;;;;;;;;;;;;;;;4.39;68.42;100009.53;4472585;31;33920;-73
2023/12/20 00:45:31;;;;;;;;;;;;;;;4.22;68.64;100003.19;4484866;31;34312;-74
2023/12/20 00:47:59;;;;;;;;;;;;;;;4.25;68.37;100000.81;4487223;31;34677;-73
2023/12/20 00:50:26;;;;;;;;;;;;;;;4.29;68.36;100007.97;4493521;31;34869;-74
2023/12/20 00:52:56;;;;;;;;;;;;;;;4.21;68.73;99996.25;4489396;31;32714;-74
2023/12/20 00:55:24;;;;;;;;;;;;;;;4.28;68.56;99998.50;4487525;31;34714;-73
2023/12/20 00:57:53;;;;;;;;;;;;;;;4.09;68.41;99986.88;4495646;31;34196;-73
2023/12/20 01:00:21;;;;;;;;;;;;;;;4.27;68.36;99981.34;4471739;31;33591;-73
2023/12/20 01:02:49;;;;;;;;;;;;;;;4.24;68.25;99981.09;4495261;31;33336;-73
2023/12/20 01:05:17;;;;;;;;;;;;;;;4.32;67.92;99974.84;4488551;31;34992;-73
2023/12/20 01:07:45;;;;;;;;;;;;;;;4.17;68.57;99972.06;4488893;31;34813;-73
2023/12/20 01:10:13;;;;;;;;;;;;;;;4.20;68.52;99969.72;4490692;31;33924;-74
2023/12/20 01:12:40;;;;;;;;;;;;;;;4.21;68.62;99962.91;4494162;31;33932;-73
2023/12/20 01:15:08;;;;;;;;;;;;;;;4.12;68.86;99960.59;4498068;31;34337;-73
2023/12/20 01:17:35;;;;;;;;;;;;;;;4.31;67.87;99953.44;4479415;31;33887;-73
2023/12/20 01:20:03;;;;;;;;;;;;;;;4.18;68.54;99957.59;4500958;31;34967;-72
2023/12/20 01:22:31;;;;;;;;;;;;;;;4.22;68.85;99946.78;4488659;31;33185;-73
2023/12/20 01:24:58;;;;;;;;;;;;;;;4.29;68.49;99947.31;4488899;31;34025;-73
2023/12/20 01:27:25;;;;;;;;;;;;;;;4.22;68.58;99936.50;4494429;31;33906;-73
2023/12/20 01:29:53;;;;;;;;;;;;;;;4.19;68.25;99936.28;4501232;31;33729;-74
2023/12/20 01:32:20;;;;;;;;;;;;;;;4.27;68.22;99935.19;4490284;31;33112;-73
2023/12/20 01:34:48;;;;;;;;;;;;;;;4.17;68.60;99938.72;4489273;31;33855;-74
2023/12/20 01:37:16;;;;;;;;;;;;;;;4.08;68.81;99931.28;4483369;31;34310;-73
2023/12/20 01:39:43;;;;;;;;;;;;;;;4.11;68.93;99923.81;4492681;31;34194;-73
2023/12/20 01:42:10;;;;;;;;;;;;;;;4.28;68.30;99930.13;4493128;31;34088;-73
2023/12/20 01:44:38;;;;;;;;;;;;;;;4.18;68.75;99922.56;4489257;31;34939;-73
2023/12/20 01:47:05;;;;;;;;;;;;;;;4.25;68.05;99917.13;4491621;31;34102;-73
2023/12/20 01:49:32;;;;;;;;;;;;;;;4.20;68.17;99913.31;4476933;31;34236;-74
2023/12/20 01:52:00;;;;;;;;;;;;;;;4.05;68.87;99907.97;4481703;31;33081;-73
2023/12/20 01:54:27;;;;;;;;;;;;;;;4.03;68.66;99909.53;4470297;31;32297;-73
2023/12/20 01:56:55;;;;;;;;;;;;;;;4.09;68.88;99894.59;4492905;31;34321;-73
2023/12/20 01:59:22;;;;;;;;;;;;;;;4.21;68.74;99893.69;4478974;31;34774;-73
2023/12/20 02:01:49;;;;;;;;;;;;;;;4.26;68.12;99877.84;4487181;31;32908;-73
2023/12/20 02:04:17;;;;;;;;;;;;;;;4.03;68.84;99878.78;4487027;31;34915;-73
2023/12/20 02:06:44;;;;;;;;;;;;;;;3.96;69.49;99881.72;4491601;31;34940;-73
2023/12/20 02:09:12;;;;;;;;;;;;;;;3.99;69.36;99871.66;4478710;31;34064;-73
2023/12/20 02:11:39;;;;;;;;;;;;;;;3.98;69.75;99875.00;4477486;31;33103;-73
2023/12/20 02:14:06;;;;;;;;;;;;;;;4.05;69.24;99866.06;4472651;32;34218;-73
2023/12/20 02:16:34;;;;;;;;;;;;;;;4.11;68.67;99869.06;4492590;31;34493;-73
2023/12/20 02:19:01;;;;;;;;;;;;;;;4.06;68.59;99858.50;4497867;31;34470;-73
2023/12/20 02:21:32;;;;;;;;;;;;;;;4.02;69.08;99856.50;4492136;31;33486;-74
2023/12/20 02:23:59;;;;;;;;;;;;;;;3.92;69.15;99854.03;4485423;31;33042;-73
2023/12/20 06:56:50;;;;;;;;;;;;;;;3.33;67.84;99724.34;4496110;26;34331;-75
2023/12/20 06:59:18;;;;;;;;;;;;;;;3.30;68.40;99724.16;4444133;32;34046;-73
2023/12/20 07:01:48;;;;;;;;;;;;;;;3.40;67.79;99724.78;4450989;32;34187;-71
2023/12/20 07:04:21;;;;;;;;;;;;;;;3.20;68.31;99721.69;4447160;32;33585;-74
2023/12/20 07:06:56;;;;;;;;;;;;;;;3.25;68.26;99725.50;4451200;32;32775;-74
2023/12/20 07:09:23;;;;;;;;;;;;;;;3.00;69.52;99721.94;4450053;32;33900;-72
2023/12/20 07:11:51;;;;;;;;;;;;;;;2.98;69.45;99720.94;4449238;32;34758;-71
2023/12/20 07:14:18;;;;;;;;;;;;;;;2.72;70.48;99714.75;4453477;32;34105;-73
2023/12/20 07:16:45;;;;;;;;;;;;;;;2.78;70.06;99722.88;4453124;32;33083;-72
2023/12/20 07:19:13;;;;;;;;;;;;;;;2.65;70.78;99715.97;4453639;32;33762;-75
2023/12/20 07:21:40;;;;;;;;;;;;;;;2.63;71.00;99719.22;4442089;32;34041;-75
2023/12/20 07:24:08;;;;;;;;;;;;;;;2.61;71.55;99713.06;4453400;32;34567;-72
2023/12/20 07:26:37;;;;;;;;;;;;;;;2.64;71.44;99718.41;4453640;32;33240;-71
2023/12/20 07:29:06;;;;;;;;;;;;;;;2.70;71.07;99719.75;4452930;32;34223;-70
2023/12/20 07:31:34;;;;;;;;;;;;;;;2.76;71.21;99716.75;4452814;32;35141;-73
2023/12/20 07:34:02;;;;;;;;;;;;;;;2.83;71.33;99721.56;4453519;32;34360;-73
2023/12/20 07:36:29;;;;;;;;;;;;;;;2.77;71.26;99723.69;4449093;32;32724;-72
2023/12/20 07:38:57;;;;;;;;;;;;;;;2.79;71.49;99721.25;4453768;32;34576;-74
2023/12/20 07:41:25;;;;;;;;;;;;;;;2.85;71.76;99720.00;4453910;32;34468;-73
2023/12/20 07:43:53;;;;;;;;;;;;;;;3.09;71.17;99720.00;4452963;32;34069;-73
2023/12/20 07:46:22;;;;;;;;;;;;;;;3.07;71.38;99719.00;4451363;32;33284;-71
2023/12/20 07:48:50;;;;;;;;;;;;;;;3.20;70.67;99719.13;4450413;32;33833;-74
2023/12/20 07:51:18;;;;;;;;;;;;;;;3.33;69.34;99716.69;4443513;32;33800;-74
2023/12/20 07:53:45;;;;;;;;;;;;;;;3.15;69.99;99716.25;4427533;32;785645;-74
2023/12/20 07:56:19;;;;;;;;;;;;;;;3.05;70.43;99708.69;4453877;32;33208;-73
2023/12/20 07:58:48;;;;;;;;;;;;;;;3.21;70.09;99710.69;4450171;32;33035;-73
2023/12/20 08:01:20;;;;;;;;;;;;;;;3.14;69.96;99708.47;4453260;32;33954;-73
2023/12/20 08:03:49;;;;;;;;;;;;;;;3.24;70.23;99708.31;4453257;32;34733;-73
2023/12/20 08:06:17;;;;;;;;;;;;;;;3.54;68.82;99703.63;4450977;32;33299;-76
2023/12/20 08:08:45;;;;;;;;;;;;;;;3.46;68.04;99697.09;4453093;32;33956;-74
2023/12/20 08:11:19;;;;;;;;;;;;;;;3.39;68.60;99694.88;4443764;32;32666;-72
2023/12/20 08:13:46;;;;;;;;;;;;;;;3.50;68.20;99699.09;4453279;32;35002;-72
2023/12/20 08:16:15;;;;;;;;;;;;;;;3.53;67.83;99694.16;4453080;32;34233;-74
2023/12/20 08:18:43;;;;;;;;;;;;;;;3.66;67.32;99694.25;4431499;32;33449;-73
2023/12/20 08:21:11;;;;;;;;;;;;;;;3.57;67.61;99691.03;4452977;32;35198;-74
2023/12/20 08:23:38;;;;;;;;;;;;;;;3.33;68.23;99696.19;4446277;32;34725;-74
2023/12/20 08:26:06;;;;;;;;;;;;;;;3.55;67.64;99692.59;4451105;32;33255;-74
2023/12/20 08:28:33;;;;;;;;;;;;;;;3.54;67.75;99703.63;4453218;32;33792;-74
2023/12/20 08:31:01;;;;;;;;;;;;;;;3.78;66.58;99711.25;4452284;32;34040;-72
2023/12/20 08:33:28;;;;;;;;;;;;;;;3.48;67.18;99710.87;4453931;32;32405;-74
2023/12/20 08:35:56;;;;;;;;;;;;;;;3.44;67.59;99708.88;4453241;32;33487;-74
2023/12/20 08:38:23;;;;;;;;;;;;;;;3.58;67.83;99697.94;4452577;32;34849;-74
2023/12/20 08:40:50;;;;;;;;;;;;;;;3.46;67.87;99702.22;4453054;32;34743;-73
2023/12/20 08:43:18;;;;;;;;;;;;;;;3.77;67.27;99700.12;4452679;32;34107;-72
2023/12/20 08:45:45;;;;;;;;;;;;;;;3.79;67.52;99702.81;4453227;32;32784;-73
2023/12/20 08:48:13;;;;;;;;;;;;;;;4.12;66.57;99697.44;4452416;32;33843;-77
2023/12/20 08:50:40;;;;;;;;;;;;;;;3.83;67.57;99707.34;4453042;32;34602;-75
2023/12/20 08:53:08;;;;;;;;;;;;;;;4.02;67.19;99712.97;4452348;32;34234;-74
2023/12/20 08:55:35;;;;;;;;;;;;;;;4.03;67.04;99709.59;4451714;32;33073;-72
2023/12/20 08:58:02;;;;;;;;;;;;;;;4.32;66.56;99705.59;4462428;32;33885;-74
2023/12/20 09:00:30;;;;;;;;;;;;;;;4.36;66.22;99704.13;4470394;32;33689;-74
2023/12/20 09:02:58;;;;;;;;;;;;;;;4.21;66.90;99709.09;4463487;32;35261;-73
2023/12/20 09:05:25;;;;;;;;;;;;;;;4.43;66.19;99712.34;4466314;32;33669;-76
2023/12/20 09:07:52;;;;;;;;;;;;;;;4.35;66.25;99708.38;4466363;32;34838;-75
2023/12/20 09:10:22;;;;;;;;;;;;;;;4.42;66.55;99709.66;4465943;32;33978;-75
2023/12/20 09:12:49;;;;;;;;;;;;;;;4.28;67.05;99701.94;4466628;32;34770;-73
2023/12/20 09:15:17;;;;;;;;;;;;;;;4.57;66.92;99697.00;4464480;32;33244;-73
2023/12/20 09:17:44;;;;;;;;;;;;;;;4.52;67.20;99692.44;4468098;32;33986;-74
2023/12/20 09:20:13;;;;;;;;;;;;;;;4.63;67.44;99694.81;4467686;32;33812;-72
2023/12/20 09:22:41;;;;;;;;;;;;;;;4.65;67.64;99691.56;4466762;32;34856;-74
2023/12/20 09:25:10;;;;;;;;;;;;;;;4.86;67.48;99693.78;4468073;32;33332;-72
2023/12/20 09:27:37;;;;;;;;;;;;;;;4.98;70.87;99688.56;4458516;32;34861;-74
2023/12/20 09:30:05;;;;;;;;;;;;;;;5.02;71.76;99680.25;4469323;32;34180;-74
2023/12/20 09:32:33;;;;;;;;;;;;;;;5.21;70.52;99678.06;4470409;32;34662;-74
2023/12/20 09:35:00;;;;;;;;;;;;;;;5.56;69.71;99661.44;4470432;32;32856;-73
2023/12/20 09:37:28;;;;;;;;;;;;;;;5.53;69.10;99655.25;4470421;32;34182;-76
2023/12/20 09:39:55;;;;;;;;;;;;;;;5.93;68.37;99653.44;4470289;32;34956;-76
2023/12/20 09:42:29;;;;;;;;;;;;;;;6.04;68.02;99647.25;4470285;32;33899;-72
2023/12/20 09:44:57;;;;;;;;;;;;;;;6.09;66.20;99645.00;4456518;32;33469;-72
2023/12/20 09:47:24;;;;;;;;;;;;;;;6.17;66.24;99653.16;4456178;32;34664;-73
2023/12/20 09:49:52;;;;;;;;;;;;;;;6.33;65.26;99650.69;4456221;32;33960;-74
2023/12/20 09:52:20;;;;;;;;;;;;;;;6.18;65.77;99639.50;4457613;32;34208;-71
2023/12/20 09:54:48;;;;;;;;;;;;;;;6.07;66.39;99632.03;4469822;32;33650;-73
2023/12/20 09:57:15;;;;;;;;;;;;;;;6.33;65.62;99634.38;4456048;32;34524;-73
2023/12/20 09:59:42;;;;;;;;;;;;;;;6.40;65.36;99636.53;4470296;32;35000;-75
2023/12/20 10:02:11;;;;;;;;;;;;;;;6.18;66.39;99629.19;4470236;32;34035;-72
2023/12/20 10:04:38;;;;;;;;;;;;;;;6.43;66.77;99629.88;4470075;32;34040;-73
2023/12/20 10:07:06;;;;;;;;;;;;;;;6.67;66.50;99635.53;4456149;32;34890;-74
2023/12/20 10:09:34;;;;;;;;;;;;;;;6.71;65.75;99626.31;4455885;32;34289;-72
2023/12/20 10:12:02;;;;;;;;;;;;;;;6.67;65.52;99622.66;4469983;32;34064;-74
2023/12/20 10:14:29;;;;;;;;;;;;;;;6.81;63.50;99620.00;4456340;32;33598;-73
2023/12/20 10:17:01;;;;;;;;;;;;;;;6.59;64.09;99618.78;4470083;32;34223;-73
2023/12/20 10:19:29;;;;;;;;;;;;;;;6.78;63.84;99610.41;4470399;32;35039;-75
2023/12/20 10:21:57;;;;;;;;;;;;;;;6.53;63.95;99586.62;4469834;32;33538;-74
2023/12/20 10:24:25;;;;;;;;;;;;;;;6.70;63.10;99598.78;4470444;32;33266;-71
2023/12/20 10:27:04;;;;;;;;;;;;;;;6.42;63.63;99604.91;4470125;32;33940;-72
2023/12/20 10:29:32;;;;;;;;;;;;;;;6.73;63.17;99604.09;4443250;32;33227;-74
2023/12/20 10:32:21;;;;;;;;;;;;;;;6.77;63.37;99588.03;4470249;32;33913;-73
2023/12/20 10:34:49;;;;;;;;;;;;;;;6.84;70.90;99586.72;4470217;32;34127;-72
2023/12/20 10:37:17;;;;;;;;;;;;;;;6.90;65.22;99579.31;4469984;32;33858;-73
2023/12/20 10:39:44;;;;;;;;;;;;;;;7.17;63.75;99582.53;4455326;32;32537;-74
2023/12/20 10:42:12;;;;;;;;;;;;;;;7.25;62.36;99578.66;4442789;32;34820;-72
2023/12/20 10:44:39;;;;;;;;;;;;;;;7.25;62.03;99578.66;4455571;32;33250;-75
2023/12/20 10:47:07;;;;;;;;;;;;;;;7.20;62.14;99581.78;4455447;32;33696;-72
2023/12/20 10:49:34;;;;;;;;;;;;;;;7.34;61.65;99583.44;4455891;32;34247;-72
2023/12/20 10:52:03;;;;;;;;;;;;;;;7.07;62.05;99572.53;4468916;32;34109;-72
2023/12/20 10:54:30;;;;;;;;;;;;;;;7.32;61.60;99568.69;4469867;32;33412;-74
2023/12/20 10:56:57;;;;;;;;;;;;;;;7.14;61.92;99569.47;4469732;32;34092;-72
2023/12/20 10:59:25;;;;;;;;;;;;;;;7.19;62.78;99573.19;4459205;32;34385;-71
2023/12/20 11:01:53;;;;;;;;;;;;;;;7.33;62.65;99570.47;4472033;32;34355;-73
2023/12/20 11:04:22;;;;;;;;;;;;;;;7.38;62.34;99575.06;4442990;32;33418;-72
2023/12/20 11:06:59;;;;;;;;;;;;;;;7.70;61.16;99562.12;4455510;32;33855;-73
2023/12/20 11:09:29;;;;;;;;;;;;;;;7.16;62.59;99557.56;4469944;32;34005;-72
2023/12/20 11:12:02;;;;;;;;;;;;;;;7.27;62.93;99553.88;4455486;32;34122;-73
2023/12/20 11:14:48;;;;;;;;;;;;;;;7.32;63.83;99542.91;4469688;32;33758;-72
2023/12/20 11:17:17;;;;;;;;;;;;;;;7.53;63.01;99538.91;4455750;32;34065;-73
2023/12/20 11:19:53;;;;;;;;;;;;;;;7.64;62.14;99537.78;4469790;32;34025;-73
2023/12/20 11:22:20;;;;;;;;;;;;;;;7.74;61.89;99521.09;4457047;32;34322;-76
2023/12/20 11:24:48;;;;;;;;;;;;;;;7.77;62.30;99510.06;4455699;32;33427;-75
2023/12/20 11:27:15;;;;;;;;;;;;;;;7.99;61.83;99515.47;4469722;32;34194;-73
2023/12/20 11:29:44;;;;;;;;;;;;;;;8.06;61.58;99501.22;4469651;32;33693;-70
2023/12/20 11:32:24;;;;;;;;;;;;;;;8.19;61.51;99489.78;4455187;32;33981;-74
2023/12/20 11:34:53;;;;;;;;;;;;;;;8.29;61.06;99494.59;4469682;32;33563;-73
2023/12/20 11:37:21;;;;;;;;;;;;;;;8.38;61.01;99489.00;4469826;32;33705;-75
2023/12/20 11:39:54;;;;;;;;;;;;;;;8.44;61.45;99495.38;4469423;32;34122;-71
2023/12/20 11:42:22;;;;;;;;;;;;;;;9.02;59.48;99498.91;4443033;32;34476;-72
2023/12/20 11:44:49;;;;;;;;;;;;;;;9.03;59.58;99487.78;4455471;32;33472;-75
2023/12/20 11:47:19;;;;;;;;;;;;;;;9.08;61.10;99486.31;4455400;32;34086;-73
2023/12/20 11:49:51;;;;;;;;;;;;;;;9.22;62.02;99480.06;4469114;32;35048;-72
2023/12/20 11:52:18;;;;;;;;;;;;;;;9.00;63.64;99482.47;4466533;32;34173;-72
2023/12/20 11:54:45;;;;;;;;;;;;;;;9.35;61.89;99480.59;4468023;32;32949;-74
2023/12/20 11:57:13;;;;;;;;;;;;;;;9.40;62.00;99477.38;4467887;32;33998;-73
2023/12/20 11:59:40;;;;;;;;;;;;;;;9.77;62.19;99472.94;4468932;32;34216;-72
2023/12/20 12:02:07;;;;;;;;;;;;;;;10.53;65.94;99471.78;4455171;32;34187;-73
2023/12/20 12:04:35;;;;;;;;;;;;;;;10.97;63.42;99464.81;4467247;32;33717;-73
2023/12/20 12:07:03;;;;;;;;;;;;;;;11.42;62.42;99459.56;4468162;32;33422;-75
2023/12/20 12:09:30;;;;;;;;;;;;;;;12.39;75.40;99447.28;4468946;32;34738;-73
2023/12/20 12:11:58;;;;;;;;;;;;;;;12.59;64.54;99437.50;4468119;32;34645;-73
2023/12/20 12:14:25;;;;;;;;;;;;;;;12.51;60.48;99439.00;4457903;32;34056;-72
2023/12/20 12:16:53;;;;;;;;;;;;;;;12.32;57.13;99433.25;4453655;32;33997;-74
2023/12/20 12:19:24;;;;;;;;;;;;;;;11.97;57.14;99435.53;4468772;32;34283;-78
2023/12/20 12:21:52;;;;;;;;;;;;;;;11.66;58.28;99431.00;4468605;32;33857;-73
2023/12/20 12:24:22;;;;;;;;;;;;;;;11.86;58.68;99434.28;4441817;32;31932;-76
2023/12/20 12:26:56;;;;;;;;;;;;;;;11.52;58.77;99434.84;4469082;32;33516;-73
2023/12/20 12:29:24;;;;;;;;;;;;;;;11.82;62.02;99445.41;4477047;32;34144;-73
2023/12/20 12:31:52;;;;;;;;;;;;;;;11.39;59.40;99449.94;4472122;32;34864;-75
2023/12/20 12:34:19;;;;;;;;;;;;;;;11.09;57.88;99429.00;4468804;32;34218;-76
2023/12/20 12:36:48;;;;;;;;;;;;;;;10.44;59.56;99438.63;4468854;32;34824;-72
2023/12/20 12:39:17;;;;;;;;;;;;;;;10.37;61.02;99434.91;4454608;32;34891;-75
2023/12/20 12:41:44;;;;;;;;;;;;;;;10.39;59.58;99438.44;4469087;32;34073;-72
2023/12/20 12:44:11;;;;;;;;;;;;;;;10.21;58.48;99442.84;4468012;32;33168;-74
2023/12/20 12:46:45;;;;;;;;;;;;;;;9.78;59.50;99446.25;4468300;32;33800;-72
2023/12/20 12:49:12;;;;;;;;;;;;;;;9.68;60.43;99449.25;4453268;32;33974;-74
2023/12/20 12:51:40;;;;;;;;;;;;;;;9.50;60.66;99450.22;4467258;32;34628;-71
2023/12/20 12:54:08;;;;;;;;;;;;;;;9.39;61.05;99460.13;4468366;32;34080;-73
2023/12/20 12:56:36;;;;;;;;;;;;;;;9.36;60.50;99466.84;4467620;32;34940;-73
2023/12/20 12:59:03;;;;;;;;;;;;;;;9.38;60.65;99460.06;4467674;32;34136;-73
2023/12/20 13:01:31;;;;;;;;;;;;;;;9.01;61.41;99453.25;4453809;32;33673;-73
2023/12/20 13:03:58;;;;;;;;;;;;;;;9.00;61.47;99456.62;4473153;32;34064;-73
2023/12/20 13:06:26;;;;;;;;;;;;;;;8.82;61.91;99454.97;4474110;32;34668;-75
2023/12/20 13:08:53;;;;;;;;;;;;;;;8.93;61.18;99449.44;4473341;32;34013;-73
2023/12/20 13:11:20;;;;;;;;;;;;;;;8.59;62.19;99458.19;4473328;32;34295;-73
2023/12/20 13:13:47;;;;;;;;;;;;;;;8.56;62.27;99458.94;4473447;32;34008;-73
2023/12/20 13:16:15;;;;;;;;;;;;;;;8.57;62.49;99454.66;4472839;32;33867;-75
2023/12/20 13:18:42;;;;;;;;;;;;;;;8.44;62.26;99448.94;4473435;32;32407;-74
2023/12/20 13:21:10;;;;;;;;;;;;;;;8.46;62.45;99457.63;4472405;32;34103;-75
2023/12/20 13:23:37;;;;;;;;;;;;;;;8.39;62.29;99450.34;4472920;32;34057;-76
2023/12/20 13:26:07;;;;;;;;;;;;;;;8.38;62.07;99438.28;4472120;32;33970;-76
2023/12/20 13:28:34;;;;;;;;;;;;;;;8.50;61.74;99444.84;4473549;32;34088;-77
2023/12/20 13:31:02;;;;;;;;;;;;;;;8.35;62.32;99442.41;4472848;32;34976;-75
2023/12/20 13:33:30;;;;;;;;;;;;;;;8.44;61.81;99442.84;4472271;32;32399;-76
2023/12/20 13:35:58;;;;;;;;;;;;;;;8.19;62.23;99446.84;4472622;32;34853;-77
2023/12/20 13:38:25;;;;;;;;;;;;;;;8.32;61.96;99453.44;4457786;32;34245;-77
2023/12/20 13:40:53;;;;;;;;;;;;;;;8.20;62.24;99458.03;4472238;32;34274;-75
2023/12/20 13:43:21;;;;;;;;;;;;;;;8.07;62.50;99459.13;4471797;32;33180;-78
2023/12/20 13:45:49;;;;;;;;;;;;;;;8.00;62.71;99465.69;4460873;32;34634;-76
2023/12/20 13:48:16;;;;;;;;;;;;;;;8.26;62.22;99460.91;4471805;32;34857;-73
2023/12/20 13:50:44;;;;;;;;;;;;;;;8.14;62.45;99460.31;4471878;32;33851;-78
2023/12/20 13:53:11;;;;;;;;;;;;;;;8.02;62.72;99464.06;4471562;32;33356;-77
2023/12/20 13:55:38;;;;;;;;;;;;;;;7.89;63.27;99466.84;4472203;32;34628;-74
2023/12/20 13:58:06;;;;;;;;;;;;;;;7.83;63.40;99461.38;4470858;32;33632;-76
2023/12/20 14:00:33;;;;;;;;;;;;;;;7.86;63.38;99470.16;4470236;32;34162;-75
2023/12/20 14:03:01;;;;;;;;;;;;;;;7.85;63.31;99467.50;4471488;32;34379;-77
2023/12/20 14:05:28;;;;;;;;;;;;;;;7.82;63.43;99478.56;4456805;32;32415;-73
2023/12/20 14:07:57;;;;;;;;;;;;;;;7.74;63.69;99478.97;4475157;32;34122;-74
2023/12/20 14:10:26;;;;;;;;;;;;;;;7.73;63.93;99490.09;4471603;32;34656;-75
2023/12/20 14:12:54;;;;;;;;;;;;;;;7.64;64.12;99481.06;4471447;32;33470;-74
2023/12/20 14:15:21;;;;;;;;;;;;;;;7.35;65.11;99476.97;4468834;32;34236;-74
2023/12/20 14:17:48;;;;;;;;;;;;;;;7.56;64.63;99479.78;4469478;32;33966;-74
2023/12/20 14:20:16;;;;;;;;;;;;;;;7.23;65.31;99472.06;4468572;32;34830;-71
2023/12/20 14:22:44;;;;;;;;;;;;;;;7.27;65.37;99473.13;4467334;32;33902;-72
2023/12/20 14:25:12;;;;;;;;;;;;;;;7.19;65.89;99480.44;4466477;32;34547;-75
2023/12/20 14:27:41;;;;;;;;;;;;;;;6.96;66.47;99480.94;4469963;32;33602;-72
2023/12/20 14:30:09;;;;;;;;;;;;;;;7.16;65.99;99475.13;4469561;32;34739;-74
2023/12/20 14:32:37;;;;;;;;;;;;;;;7.24;65.80;99476.44;4455769;32;33657;-73
2023/12/20 14:35:05;;;;;;;;;;;;;;;7.24;65.55;99473.88;4468362;32;33566;-74
2023/12/20 14:37:34;;;;;;;;;;;;;;;7.01;66.78;99479.47;4469941;32;34584;-73
2023/12/20 14:40:01;;;;;;;;;;;;;;;7.13;66.38;99482.72;4469426;32;34735;-73
2023/12/20 14:42:29;;;;;;;;;;;;;;;7.05;66.64;99486.53;4466167;32;34149;-72
2023/12/20 14:44:56;;;;;;;;;;;;;;;7.21;66.14;99485.69;4455409;32;33455;-72
2023/12/20 14:47:24;;;;;;;;;;;;;;;7.06;66.39;99484.06;4455543;32;32563;-72
2023/12/20 14:49:52;;;;;;;;;;;;;;;6.95;67.34;99489.44;4469264;32;34486;-75
2023/12/20 14:52:19;;;;;;;;;;;;;;;7.10;66.65;99487.69;4469472;32;34563;-73
2023/12/20 14:54:47;;;;;;;;;;;;;;;7.06;66.81;99488.31;4455698;32;33872;-73
2023/12/20 14:57:14;;;;;;;;;;;;;;;7.00;67.05;99493.16;4455354;32;33679;-73
2023/12/20 14:59:43;;;;;;;;;;;;;;;7.00;67.29;99498.31;4469634;32;33928;-73
2023/12/20 15:02:10;;;;;;;;;;;;;;;7.11;66.71;99502.34;4469221;32;33967;-73
2023/12/20 15:04:38;;;;;;;;;;;;;;;7.03;67.15;99522.53;4466478;32;33952;-73
2023/12/20 15:07:06;;;;;;;;;;;;;;;6.94;67.44;99523.72;4469936;32;34165;-73
2023/12/20 15:09:33;;;;;;;;;;;;;;;6.80;67.84;99526.44;4468612;32;34722;-73
2023/12/20 15:12:01;;;;;;;;;;;;;;;6.93;67.47;99521.94;4469231;32;33901;-73
2023/12/20 15:14:28;;;;;;;;;;;;;;;6.98;67.27;99521.41;4469480;32;33971;-73
2023/12/20 15:16:56;;;;;;;;;;;;;;;7.20;66.37;99525.12;4468755;32;33979;-73
2023/12/20 15:19:23;;;;;;;;;;;;;;;7.20;66.25;99528.56;4454768;32;32339;-73
2023/12/20 15:21:51;;;;;;;;;;;;;;;7.25;66.34;99532.28;4455323;32;33428;-73
2023/12/20 15:24:26;;;;;;;;;;;;;;;7.31;66.02;99536.00;4468972;32;34661;-73
2023/12/20 15:26:53;;;;;;;;;;;;;;;7.09;66.64;99534.88;4468107;32;34027;-73
2023/12/20 15:29:21;;;;;;;;;;;;;;;7.10;66.30;99536.63;4469275;32;34760;-73
2023/12/20 15:31:48;;;;;;;;;;;;;;;7.03;66.57;99544.81;4468683;32;33169;-73
2023/12/20 15:34:15;;;;;;;;;;;;;;;6.97;66.81;99539.31;4454354;32;33863;-73
2023/12/20 15:36:44;;;;;;;;;;;;;;;7.18;66.37;99535.34;4467377;32;34040;-73
2023/12/20 15:39:14;;;;;;;;;;;;;;;7.14;66.29;99541.13;4468945;32;35265;-73
2023/12/20 15:41:41;;;;;;;;;;;;;;;7.11;66.73;99548.72;4468689;32;33390;-73
2023/12/20 15:44:08;;;;;;;;;;;;;;;7.31;66.05;99554.06;4469267;32;34700;-73
2023/12/20 15:46:36;;;;;;;;;;;;;;;7.36;65.52;99555.16;4469476;32;34297;-73
2023/12/20 15:49:03;;;;;;;;;;;;;;;7.31;65.83;99561.78;4469569;32;34577;-73
2023/12/20 15:51:31;;;;;;;;;;;;;;;7.07;66.49;99557.97;4469168;32;33112;-73
2023/12/20 15:54:05;;;;;;;;;;;;;;;7.22;66.36;99560.50;4454895;32;32901;-75
2023/12/20 15:56:32;;;;;;;;;;;;;;;7.14;66.39;99558.28;4467883;32;33910;-74
2023/12/20 15:59:00;;;;;;;;;;;;;;;7.20;66.33;99556.91;4453279;32;33883;-73
2023/12/20 16:01:28;;;;;;;;;;;;;;;7.44;65.68;99564.22;4465900;32;33860;-72
2023/12/20 16:03:56;;;;;;;;;;;;;;;7.34;65.73;99564.50;4469167;32;34404;-73
2023/12/20 16:06:26;;;;;;;;;;;;;;;7.25;66.15;99563.22;4468742;32;33765;-73
2023/12/20 16:08:53;;;;;;;;;;;;;;;7.34;65.81;99567.06;4468977;32;33949;-73
2023/12/20 16:11:21;;;;;;;;;;;;;;;7.25;66.22;99573.50;4465641;32;33041;-72
2023/12/20 16:13:49;;;;;;;;;;;;;;;7.17;66.74;99569.66;4468855;32;34870;-72
2023/12/20 16:16:16;;;;;;;;;;;;;;;7.36;65.68;99571.53;4466761;32;35026;-73
2023/12/20 16:18:43;;;;;;;;;;;;;;;7.27;66.39;99559.03;4470939;32;34159;-72
2023/12/20 16:21:11;;;;;;;;;;;;;;;6.93;66.80;99563.12;4460754;32;33373;-73
2023/12/20 16:23:38;;;;;;;;;;;;;;;7.10;66.55;99562.38;4469322;32;33297;-73
2023/12/20 16:26:06;;;;;;;;;;;;;;;7.25;66.71;99562.34;4467991;32;35335;-71
2023/12/20 16:28:33;;;;;;;;;;;;;;;7.34;66.64;99556.78;4469244;32;34513;-73
2023/12/20 16:31:00;;;;;;;;;;;;;;;7.01;67.69;99551.56;4455185;32;34032;-71
2023/12/20 16:33:28;;;;;;;;;;;;;;;7.34;66.82;99546.47;4468697;32;34751;-73
2023/12/20 16:35:56;;;;;;;;;;;;;;;7.34;67.07;99556.78;4468771;32;33829;-73
2023/12/20 16:38:23;;;;;;;;;;;;;;;7.46;66.61;99562.59;4467988;32;34655;-72
2023/12/20 16:40:51;;;;;;;;;;;;;;;7.62;65.74;99560.00;4468314;32;34116;-72
2023/12/20 16:43:18;;;;;;;;;;;;;;;7.62;65.37;99567.75;4465263;32;34173;-71
2023/12/20 16:45:45;;;;;;;;;;;;;;;7.48;65.84;99576.44;4468331;32;33962;-72
2023/12/20 16:48:13;;;;;;;;;;;;;;;7.46;65.59;99572.91;4468336;32;34264;-72
2023/12/20 16:50:40;;;;;;;;;;;;;;;7.32;66.14;99582.47;4468871;32;33771;-73
2023/12/20 16:53:07;;;;;;;;;;;;;;;7.41;66.11;99576.91;4468359;32;34915;-72
2023/12/20 16:55:35;;;;;;;;;;;;;;;7.28;66.18;99581.41;4468483;32;34494;-71
2023/12/20 16:58:02;;;;;;;;;;;;;;;7.19;66.42;99591.22;4478601;32;34225;-72
2023/12/20 17:00:33;;;;;;;;;;;;;;;7.37;65.52;99596.47;4468772;32;33507;-72
2023/12/20 17:03:01;;;;;;;;;;;;;;;7.45;65.51;99597.78;4454238;32;33568;-72
2023/12/20 17:05:28;;;;;;;;;;;;;;;7.19;66.31;99600.66;4468668;32;33954;-71
2023/12/20 17:07:55;;;;;;;;;;;;;;;7.34;65.78;99603.16;4468396;32;34298;-73
2023/12/20 17:10:23;;;;;;;;;;;;;;;7.31;65.82;99608.16;4465756;32;34216;-72
2023/12/20 17:12:50;;;;;;;;;;;;;;;7.23;65.82;99611.19;4470072;32;34161;-72
2023/12/20 17:15:17;;;;;;;;;;;;;;;7.50;64.78;99612.63;4467724;32;34113;-73
2023/12/20 17:17:45;;;;;;;;;;;;;;;7.42;64.74;99617.38;4466362;32;33978;-72
2023/12/20 17:20:13;;;;;;;;;;;;;;;7.14;65.54;99620.97;4468168;32;34239;-72
2023/12/20 17:22:40;;;;;;;;;;;;;;;7.39;64.85;99625.78;4468239;32;34527;-73
2023/12/20 17:25:08;;;;;;;;;;;;;;;7.45;64.23;99636.44;4468062;32;34124;-72
2023/12/20 17:27:36;;;;;;;;;;;;;;;7.14;65.34;99636.44;4468398;32;33805;-72
2023/12/20 17:30:04;;;;;;;;;;;;;;;7.17;65.33;99649.50;4467716;32;33183;-72